Terminal Aerodrome Forecast
Issued by NWS Wilmington, OH

Home | Current Version | Previous Version | Text Only | Print | Product List | Glossary On
Versions: 1 2 3 4 5 6 7 8 9 10 11 12 13 14 15 16 17 18 19
000
FTUS41 KILN 231123
TAFILN
TAF
KILN 231123Z 2312/2412 36006KT P6SM OVC018
     FM231400 02007KT P6SM SCT025
     FM231600 02008KT P6SM SCT035
     FM232300 05005KT P6SM SKC=

USA.gov is the U.S. government's official web portal to all federal, state and local government web resources and services.